createdAt,value
2019-03-15T00:01:20.090Z,31.82
2019-03-15T00:03:48.967Z,37.30
2019-03-15T00:06:18.060Z,36.13
2019-03-15T00:08:46.965Z,41.60
2019-03-15T00:11:15.752Z,34.85
2019-03-15T00:13:44.541Z,31.75
2019-03-15T00:16:13.584Z,32.65
2019-03-15T00:18:42.653Z,31.60
2019-03-15T00:21:11.273Z,32.23
2019-03-15T00:23:40.321Z,33.85
2019-03-15T00:26:09.015Z,32.93
2019-03-15T00:28:37.699Z,32.48
2019-03-15T00:31:06.650Z,30.65
2019-03-15T00:33:35.480Z,30.25
2019-03-15T00:36:04.341Z,28.52
2019-03-15T00:38:33.030Z,31.48
2019-03-15T00:41:01.694Z,30.05
2019-03-15T00:43:30.565Z,31.30
2019-03-15T00:45:59.614Z,26.82
2019-03-15T00:48:28.648Z,26.93
2019-03-15T00:50:57.882Z,29.02
2019-03-15T00:53:26.714Z,25.23
2019-03-15T00:55:55.548Z,27.82
2019-03-15T00:58:24.150Z,24.12
2019-03-15T01:00:54.036Z,22.05
2019-03-15T01:03:23.019Z,22.67
2019-03-15T01:05:51.979Z,24.95
2019-03-15T01:08:20.547Z,25.52
2019-03-15T01:10:49.452Z,24.72
2019-03-15T01:13:18.194Z,25.15
2019-03-15T01:15:47.121Z,20.65
2019-03-15T01:18:15.776Z,23.45
2019-03-15T01:20:44.519Z,23.18
2019-03-15T01:23:14.423Z,24.47
2019-03-15T01:25:43.030Z,26.87
2019-03-15T01:28:11.883Z,22.15
2019-03-15T01:30:40.948Z,22.25
2019-03-15T01:33:09.552Z,21.35
2019-03-15T01:35:39.262Z,21.62
2019-03-15T01:38:08.099Z,21.37
2019-03-15T01:40:36.973Z,24.87
2019-03-15T01:43:05.914Z,24.02
2019-03-15T01:45:34.707Z,24.70
2019-03-15T01:48:03.294Z,23.57
2019-03-15T01:50:32.275Z,25.90
2019-03-15T01:53:01.139Z,22.35
2019-03-15T01:55:29.995Z,23.00
2019-03-15T01:57:58.889Z,24.32
2019-03-15T02:00:27.612Z,26.93
2019-03-15T02:02:57.478Z,26.17
2019-03-15T02:05:26.413Z,24.95
2019-03-15T02:07:55.270Z,27.37
2019-03-15T02:10:24.154Z,23.95
2019-03-15T02:12:52.861Z,28.42
2019-03-15T02:15:21.851Z,30.45
2019-03-15T02:17:50.577Z,29.45
2019-03-15T02:20:19.426Z,24.60
2019-03-15T02:22:48.433Z,25.70
2019-03-15T02:25:16.963Z,32.73
2019-03-15T02:27:45.837Z,24.98
2019-03-15T02:30:14.721Z,31.15
2019-03-15T02:32:43.387Z,29.00
2019-03-15T02:35:12.442Z,29.92
2019-03-15T02:37:41.411Z,33.80
2019-03-15T02:40:11.182Z,31.68
2019-03-15T02:42:39.947Z,32.45
2019-03-15T02:45:08.696Z,30.75
2019-03-15T02:47:37.711Z,36.77
2019-03-15T02:50:06.814Z,31.42
2019-03-15T02:52:36.611Z,31.17
2019-03-15T02:55:06.006Z,35.50
2019-03-15T02:57:35.520Z,33.35
2019-03-15T03:00:09.293Z,33.80
2019-03-15T03:02:38.038Z,35.48
2019-03-15T03:05:09.156Z,35.25
2019-03-15T03:07:38.297Z,32.33
2019-03-15T03:10:08.889Z,32.38
2019-03-15T03:12:37.683Z,34.85
2019-03-15T03:15:07.117Z,32.67
2019-03-15T03:17:35.998Z,32.98
2019-03-15T03:20:05.929Z,36.60
2019-03-15T03:22:36.110Z,33.95
2019-03-15T03:25:05.829Z,33.15
2019-03-15T03:27:35.063Z,35.75
2019-03-15T03:30:04.547Z,34.80
2019-03-15T03:32:33.659Z,37.75
2019-03-15T03:35:02.622Z,39.80
2019-03-15T03:37:31.527Z,40.20
2019-03-15T03:40:01.553Z,40.75
2019-03-15T03:42:30.711Z,51.88
2019-03-15T03:44:59.386Z,45.45
2019-03-15T03:47:32.379Z,39.95
2019-03-15T03:49:59.496Z,35.40
2019-03-15T03:52:28.339Z,37.65
2019-03-15T03:54:57.666Z,36.00
2019-03-15T03:57:26.440Z,31.20
2019-03-15T03:59:55.490Z,34.27
2019-03-15T04:02:24.307Z,31.65
2019-03-15T04:04:53.034Z,30.77
2019-03-15T04:07:23.122Z,32.88
2019-03-15T04:09:51.852Z,33.60
2019-03-15T04:12:20.495Z,32.17
2019-03-15T04:14:49.364Z,32.48
2019-03-15T04:17:18.173Z,35.40
2019-03-15T04:19:47.061Z,36.03
2019-03-15T04:22:16.979Z,32.75
2019-03-15T04:24:45.867Z,33.42
2019-03-15T04:27:14.780Z,35.90
2019-03-15T04:29:43.409Z,34.00
2019-03-15T04:32:12.249Z,33.65
2019-03-15T04:34:41.076Z,34.15
2019-03-15T04:37:10.061Z,32.95
2019-03-15T04:39:39.663Z,35.98
2019-03-15T04:42:08.437Z,32.65
2019-03-15T04:44:37.419Z,35.10
2019-03-15T04:47:06.218Z,32.35
2019-03-15T04:49:35.183Z,35.43
2019-03-15T04:52:04.221Z,33.05
2019-03-15T04:54:32.888Z,30.82
2019-03-15T04:57:01.733Z,32.83
2019-03-15T04:59:30.715Z,32.45
2019-03-15T05:01:59.538Z,33.85
2019-03-15T05:04:28.205Z,31.07
2019-03-15T05:06:57.149Z,32.75
2019-03-15T05:09:26.787Z,31.33
2019-03-15T05:11:55.703Z,26.90
2019-03-15T05:14:24.662Z,25.05
2019-03-15T05:16:53.262Z,24.50
2019-03-15T05:19:22.214Z,21.95
2019-03-15T05:21:50.912Z,22.35
2019-03-15T05:24:20.036Z,22.75
2019-03-15T05:26:49.054Z,20.37
2019-03-15T05:29:17.700Z,18.15
2019-03-15T05:31:46.567Z,16.52
2019-03-15T05:34:15.546Z,16.73
2019-03-15T05:36:45.227Z,17.23
2019-03-15T05:39:14.258Z,15.75
2019-03-15T05:41:43.039Z,15.78
2019-03-15T05:44:11.690Z,18.25
2019-03-15T05:46:40.416Z,18.17
2019-03-15T05:49:09.054Z,17.15
2019-03-15T05:51:39.248Z,17.00
2019-03-15T05:54:07.932Z,15.20
2019-03-15T05:56:36.514Z,15.63
2019-03-15T05:59:05.158Z,17.30
2019-03-15T06:01:36.929Z,18.12
2019-03-15T06:04:05.687Z,18.00
2019-03-15T06:06:34.594Z,18.07
2019-03-15T06:09:03.199Z,17.42
2019-03-15T06:11:32.727Z,16.52
2019-03-15T06:14:01.679Z,18.77
2019-03-15T06:16:30.370Z,15.95
2019-03-15T06:18:58.999Z,20.50
2019-03-15T06:21:27.830Z,16.00
2019-03-15T06:23:57.550Z,17.35
2019-03-15T06:26:26.375Z,17.05
2019-03-15T06:28:55.188Z,18.42
2019-03-15T06:31:24.285Z,17.42
2019-03-15T06:33:53.233Z,19.27
2019-03-15T06:36:21.940Z,16.32
2019-03-15T06:38:50.619Z,18.35
2019-03-15T06:41:19.250Z,16.82
2019-03-15T06:43:48.011Z,17.17
2019-03-15T06:46:16.929Z,18.55
2019-03-15T06:48:45.698Z,19.92
2019-03-15T06:51:14.762Z,17.37
2019-03-15T06:53:43.268Z,21.70
2019-03-15T06:56:11.847Z,19.30
2019-03-15T06:58:40.786Z,25.68
2019-03-15T07:01:09.428Z,24.50
2019-03-15T07:03:38.305Z,24.43
2019-03-15T07:06:06.938Z,19.95
2019-03-15T07:08:36.854Z,22.20
2019-03-15T07:11:05.550Z,21.37
2019-03-15T07:13:35.347Z,21.75
2019-03-15T07:16:03.962Z,20.82
2019-03-15T07:18:32.697Z,22.17
2019-03-15T07:21:01.510Z,23.52
2019-03-15T07:23:30.129Z,21.50
2019-03-15T07:25:58.738Z,21.17
2019-03-15T07:28:27.459Z,18.62
2019-03-15T07:30:56.290Z,22.22
2019-03-15T07:33:25.502Z,19.50
2019-03-15T07:35:54.287Z,19.62
2019-03-15T07:38:23.200Z,22.65
2019-03-15T07:40:52.169Z,23.73
2019-03-15T07:43:20.860Z,22.07
2019-03-15T07:45:49.428Z,25.50
2019-03-15T07:48:22.874Z,24.85
2019-03-15T07:50:48.557Z,23.87
2019-03-15T07:53:17.177Z,21.50
2019-03-15T07:55:45.732Z,22.00
2019-03-15T07:58:14.582Z,22.22
2019-03-15T08:00:43.220Z,20.32
2019-03-15T08:03:11.893Z,21.33
2019-03-15T08:05:40.570Z,20.95
2019-03-15T08:08:09.246Z,20.60
2019-03-15T08:10:37.991Z,18.07
2019-03-15T08:13:06.601Z,20.32
2019-03-15T08:15:37.118Z,20.65
2019-03-15T08:18:05.903Z,14.28
2019-03-15T08:20:34.547Z,18.85
2019-03-15T08:23:03.288Z,17.12
2019-03-15T08:25:33.131Z,16.02
2019-03-15T08:28:02.105Z,17.55
2019-03-15T08:30:32.028Z,22.35
2019-03-15T08:33:09.955Z,18.45
2019-03-15T08:35:31.175Z,17.45
2019-03-15T08:37:59.718Z,14.45
2019-03-15T08:40:28.784Z,19.00
2019-03-15T08:42:57.698Z,12.85
2019-03-15T08:45:26.308Z,14.68
2019-03-15T08:47:55.128Z,14.15
2019-03-15T08:50:24.716Z,11.83
2019-03-15T08:52:54.364Z,11.80
2019-03-15T08:55:23.145Z,8.08
2019-03-15T08:57:51.708Z,10.45
2019-03-15T09:00:20.323Z,8.40
2019-03-15T09:02:48.828Z,7.53
2019-03-15T09:05:18.036Z,6.75
2019-03-15T09:07:46.897Z,8.28
2019-03-15T09:10:23.383Z,7.75
2019-03-15T09:12:49.079Z,8.53
2019-03-15T09:15:17.878Z,8.40
2019-03-15T09:17:47.329Z,6.80
2019-03-15T09:20:16.015Z,9.63
2019-03-15T09:22:44.783Z,8.70
2019-03-15T09:25:19.791Z,8.03
2019-03-15T10:08:03.764Z,9.05
2019-03-15T10:10:35.307Z,5.70
2019-03-15T10:13:06.265Z,7.40
2019-03-15T10:15:37.962Z,5.80
2019-03-15T10:18:08.321Z,7.40
2019-03-15T10:20:37.454Z,8.90
2019-03-15T10:23:06.735Z,5.47
2019-03-15T10:25:46.836Z,5.45
2019-03-15T10:28:11.679Z,5.08
2019-03-15T10:30:41.142Z,6.03
2019-03-15T10:33:10.291Z,4.78
2019-03-15T10:35:39.952Z,5.55
2019-03-15T10:38:11.278Z,4.35
2019-03-15T10:40:40.062Z,4.75
2019-03-15T10:43:12.216Z,4.90
2019-03-15T10:45:41.249Z,4.28
2019-03-15T10:48:10.258Z,5.05
2019-03-15T10:50:39.253Z,4.70
2019-03-15T10:53:08.308Z,3.40
2019-03-15T10:55:39.273Z,5.50
2019-03-15T10:58:13.584Z,5.53
2019-03-15T11:00:49.866Z,3.92
2019-03-15T11:03:21.997Z,3.50
2019-03-15T11:05:51.032Z,3.45
2019-03-15T11:08:24.066Z,3.12
2019-03-15T11:10:51.809Z,3.37
2019-03-15T11:13:21.023Z,2.83
2019-03-15T11:15:56.938Z,3.00
2019-03-15T11:18:26.687Z,2.77
2019-03-15T11:20:56.451Z,2.40
2019-03-15T11:23:25.450Z,3.37
2019-03-15T11:25:55.334Z,2.60
2019-03-15T11:28:24.188Z,2.30
2019-03-15T11:30:52.819Z,2.47
2019-03-15T11:33:21.730Z,5.97
2019-03-15T11:35:50.639Z,5.92
2019-03-15T11:38:20.762Z,3.65
2019-03-15T11:40:49.522Z,5.33
2019-03-15T11:43:18.659Z,3.58
2019-03-15T11:45:54.490Z,2.98
2019-03-15T11:48:23.734Z,2.77
2019-03-15T11:50:56.930Z,3.87
2019-03-15T11:53:27.563Z,3.35
2019-03-15T11:55:56.731Z,4.03
2019-03-15T11:58:28.700Z,6.85
2019-03-15T12:00:57.476Z,4.75
2019-03-15T12:03:26.605Z,3.33
2019-03-15T12:05:55.755Z,3.35
2019-03-15T12:08:29.642Z,2.40
2019-03-15T12:10:58.553Z,2.95
2019-03-15T12:13:27.423Z,4.35
2019-03-15T12:16:02.094Z,2.20
2019-03-15T12:18:32.106Z,3.60
2019-03-15T12:21:01.069Z,2.52
2019-03-15T12:23:30.222Z,3.20
2019-03-15T12:26:00.660Z,3.37
2019-03-15T12:28:34.171Z,3.33
2019-03-15T12:31:10.793Z,3.25
2019-03-15T12:33:41.738Z,4.45
2019-03-15T12:36:10.532Z,2.70
2019-03-15T12:38:42.536Z,4.85
2019-03-15T12:41:24.566Z,2.72
2019-03-15T12:43:59.089Z,4.27
2019-03-15T12:46:33.894Z,4.90
2019-03-15T12:49:17.960Z,5.12
2019-03-15T12:51:46.943Z,3.17
2019-03-15T12:54:22.780Z,4.75
2019-03-15T12:56:53.980Z,3.40
2019-03-15T12:59:22.599Z,9.75
2019-03-15T13:01:57.022Z,2.67
2019-03-15T13:04:33.357Z,3.77
2019-03-15T13:07:05.589Z,5.85
2019-03-15T13:09:38.533Z,3.55
2019-03-15T13:12:08.778Z,3.90
2019-03-15T13:14:39.638Z,6.58
2019-03-15T13:17:08.473Z,3.62
2019-03-15T13:19:54.222Z,6.65
2019-03-15T13:22:15.251Z,7.40
2019-03-15T13:24:45.736Z,2.35
2019-03-15T13:27:21.502Z,3.40
2019-03-15T13:29:50.601Z,4.08
2019-03-15T13:32:28.081Z,5.47
2019-03-15T13:35:05.235Z,4.00
2019-03-15T13:37:37.817Z,3.67
2019-03-15T13:40:10.405Z,3.20
2019-03-15T13:42:50.518Z,5.45
2019-03-15T13:45:20.296Z,3.92
2019-03-15T13:47:50.540Z,5.78
2019-03-15T13:50:23.559Z,7.05
2019-03-15T13:52:57.388Z,4.53
2019-03-15T13:55:28.758Z,3.40
2019-03-15T13:58:09.442Z,4.93
2019-03-15T14:00:39.693Z,7.10
2019-03-15T14:03:20.317Z,4.95
2019-03-15T14:05:51.667Z,10.60
2019-03-15T14:08:25.632Z,7.80
2019-03-15T14:10:56.481Z,58.65
2019-03-15T14:13:30.282Z,57.75
2019-03-15T14:16:06.442Z,19.95
2019-03-15T14:18:39.250Z,11.43
2019-03-15T14:21:09.195Z,8.18
2019-03-15T14:23:38.279Z,6.08
2019-03-15T14:26:13.696Z,7.20
2019-03-15T14:28:48.590Z,9.20
2019-03-15T14:31:21.299Z,9.48
2019-03-15T14:33:52.000Z,8.13
2019-03-15T14:36:33.171Z,4.92
2019-03-15T14:39:04.248Z,4.83
2019-03-15T14:41:41.574Z,4.33
2019-03-15T14:44:25.953Z,6.30
2019-03-15T14:47:03.876Z,3.90
2019-03-15T14:49:38.176Z,2.72
2019-03-15T14:52:13.192Z,5.90
2019-03-15T14:54:44.634Z,6.12
2019-03-15T14:57:22.898Z,6.35
2019-03-15T15:00:05.976Z,6.05
2019-03-15T15:02:38.105Z,7.30
2019-03-15T15:05:20.296Z,10.23
2019-03-15T15:07:49.750Z,7.03
2019-03-15T15:10:20.519Z,14.00
2019-03-15T15:12:56.379Z,7.58
2019-03-15T15:15:26.781Z,8.58
2019-03-15T15:17:55.692Z,7.62
2019-03-15T15:20:24.296Z,7.62
2019-03-15T15:22:54.484Z,10.90
2019-03-15T15:25:23.330Z,6.80
2019-03-15T15:28:03.756Z,4.55
2019-03-15T15:30:22.910Z,7.33
2019-03-15T15:32:57.963Z,5.08
2019-03-15T15:35:26.618Z,5.83
2019-03-15T15:38:04.017Z,4.42
2019-03-15T15:40:37.467Z,4.37
2019-03-15T15:43:06.354Z,6.05
2019-03-15T15:45:35.207Z,2.92
2019-03-15T15:50:45.670Z,5.45
2019-03-15T15:53:14.405Z,7.45
2019-03-15T15:55:49.662Z,8.08
2019-03-15T15:58:22.169Z,7.28
2019-03-15T16:01:00.407Z,7.42
2019-03-15T16:03:29.390Z,7.80
2019-03-15T16:06:15.822Z,7.25
2019-03-15T16:08:39.659Z,8.60
2019-03-15T16:11:13.322Z,10.75
2019-03-15T16:13:45.724Z,7.65
2019-03-15T16:16:17.912Z,15.78
2019-03-15T16:18:47.026Z,9.18
2019-03-15T16:21:22.831Z,7.22
2019-03-15T16:23:55.609Z,8.68
2019-03-15T16:26:24.331Z,7.85
2019-03-15T16:28:59.020Z,13.28
2019-03-15T16:31:27.940Z,11.60
2019-03-15T16:33:57.103Z,15.25
2019-03-15T16:36:25.830Z,15.88
2019-03-15T16:38:56.079Z,13.55
2019-03-15T16:41:27.589Z,11.55
2019-03-15T16:43:56.453Z,12.37
2019-03-15T16:46:29.821Z,17.10
2019-03-15T18:46:14.032Z,37.70
2019-03-15T18:48:42.762Z,28.12
2019-03-15T18:51:11.928Z,26.85
2019-03-15T18:53:40.688Z,24.23
2019-03-15T18:56:09.732Z,26.25
2019-03-15T18:58:38.638Z,31.75
2019-03-15T19:01:07.425Z,31.82
2019-03-15T19:03:36.306Z,35.90
2019-03-15T19:06:05.283Z,28.00
2019-03-15T19:08:34.121Z,25.82
2019-03-15T19:11:03.292Z,21.93
2019-03-15T19:13:32.024Z,27.00
2019-03-15T19:16:00.679Z,24.95
2019-03-15T19:18:29.385Z,26.82
2019-03-15T19:20:58.325Z,30.12
2019-03-15T19:23:28.545Z,28.05
2019-03-15T19:25:57.410Z,23.52
2019-03-15T19:28:26.248Z,21.37
2019-03-15T19:30:54.897Z,25.92
2019-03-15T19:33:23.778Z,29.10
2019-03-15T19:35:52.472Z,26.27
2019-03-15T19:38:21.339Z,22.55
2019-03-15T19:40:51.464Z,23.92
2019-03-15T19:43:20.272Z,23.40
2019-03-15T19:45:49.288Z,19.87
2019-03-15T19:48:17.880Z,26.12
2019-03-15T19:50:46.592Z,24.85
2019-03-15T19:53:15.315Z,15.58
2019-03-15T19:55:44.002Z,12.88
2019-03-15T19:58:12.759Z,21.17
2019-03-15T20:00:41.536Z,20.80
2019-03-15T20:03:10.442Z,20.08
2019-03-15T20:05:42.312Z,22.35
2019-03-15T20:08:12.415Z,20.52
2019-03-15T20:10:41.002Z,16.82
2019-03-15T20:13:09.977Z,15.98
2019-03-15T20:15:38.804Z,14.45
2019-03-15T20:18:07.818Z,15.90
2019-03-15T20:20:36.576Z,19.35
2019-03-15T20:23:05.344Z,19.60
2019-03-15T20:25:34.269Z,9.78
2019-03-15T20:28:04.308Z,11.05
2019-03-15T20:30:33.367Z,9.15
2019-03-15T20:33:02.201Z,7.00
2019-03-15T20:35:31.327Z,8.00
2019-03-15T20:38:00.140Z,4.67
2019-03-15T20:40:29.052Z,8.28
2019-03-15T20:42:57.911Z,13.62
2019-03-15T20:45:32.891Z,18.65
2019-03-15T20:48:02.184Z,8.40
2019-03-15T20:50:31.422Z,5.50
2019-03-15T20:53:08.721Z,3.80
2019-03-15T20:55:33.032Z,2.65
2019-03-15T20:58:01.940Z,5.97
2019-03-15T21:00:35.948Z,8.95
2019-03-15T21:03:01.294Z,4.30
2019-03-15T21:05:30.242Z,7.60
2019-03-15T21:08:09.679Z,5.28
2019-03-15T21:10:35.537Z,9.60
2019-03-15T21:13:04.517Z,31.45
2019-03-15T21:15:33.352Z,12.85
2019-03-15T21:18:02.026Z,9.18
2019-03-15T21:20:30.907Z,22.60
2019-03-15T21:22:59.764Z,27.50
2019-03-15T21:25:28.414Z,14.47
2019-03-15T21:27:57.148Z,12.23
2019-03-15T21:30:26.536Z,12.43
2019-03-15T21:32:57.169Z,10.75
2019-03-15T21:35:26.163Z,8.73
2019-03-15T21:38:06.699Z,12.18
2019-03-15T21:40:35.590Z,8.23
2019-03-15T21:43:04.198Z,11.18
2019-03-15T21:45:33.137Z,12.13
2019-03-15T21:48:02.164Z,15.32
2019-03-15T21:50:31.065Z,14.45
2019-03-15T21:52:59.863Z,9.20
2019-03-15T21:55:30.887Z,10.95
2019-03-15T21:58:01.655Z,11.68
2019-03-15T22:00:31.931Z,20.30
2019-03-15T22:03:00.950Z,22.37
2019-03-15T22:05:29.692Z,10.50
2019-03-15T22:07:58.439Z,13.05
2019-03-15T22:10:27.059Z,7.00
2019-03-15T22:12:55.737Z,9.83
2019-03-15T22:15:24.865Z,9.45
2019-03-15T22:17:53.606Z,12.93
2019-03-15T22:20:22.306Z,6.83
2019-03-15T22:22:51.135Z,10.53
2019-03-15T22:25:20.259Z,11.70
2019-03-15T22:27:50.316Z,7.60
2019-03-15T22:30:19.664Z,10.05
2019-03-15T22:32:48.405Z,6.28
2019-03-15T22:35:17.445Z,8.03
2019-03-15T22:37:46.192Z,9.00
2019-03-15T22:40:15.057Z,9.35
2019-03-15T22:42:43.800Z,7.67
2019-03-15T22:45:13.342Z,8.75
2019-03-15T22:47:42.423Z,11.20
2019-03-15T22:50:11.734Z,7.75
2019-03-15T22:52:40.441Z,8.80
2019-03-15T22:55:10.351Z,9.90
2019-03-15T22:57:39.166Z,11.97
2019-03-15T23:00:15.099Z,8.65
2019-03-15T23:02:45.802Z,9.30
2019-03-15T23:05:14.784Z,7.37
2019-03-15T23:07:44.890Z,7.35
2019-03-15T23:10:13.579Z,12.90
2019-03-15T23:12:42.769Z,9.63
2019-03-15T23:15:11.951Z,17.48
2019-03-15T23:17:41.111Z,11.33
2019-03-15T23:20:10.943Z,10.60
2019-03-15T23:22:40.964Z,9.73
2019-03-15T23:25:12.945Z,11.40
2019-03-15T23:27:41.983Z,11.55
2019-03-15T23:30:15.089Z,16.02
2019-03-15T23:32:44.314Z,8.95
2019-03-15T23:35:13.034Z,12.28
2019-03-15T23:37:41.694Z,14.33
2019-03-15T23:40:13.977Z,10.38
2019-03-15T23:45:11.097Z,11.22
2019-03-15T23:47:40.028Z,11.70
2019-03-15T23:50:10.445Z,7.83
2019-03-15T23:52:39.222Z,7.62
2019-03-15T23:55:07.941Z,8.33
2019-03-15T23:57:37.093Z,8.93
